Time;durP1;ratioP1;P1;durP2;ratioP2;P2;SDS_P1;SDS_P2;PMS_P1;PMS_P2;Temp;Humidity;BMP_temperature;BMP_pressure;BME280_temperature;BME280_humidity;BME280_pressure;Samples;Min_cycle;Max_cycle;Signal;HPM_P1;HPM_P2
2022/06/22 00:01:48;;;;;;;10.23;5.70;;;;;;;26.19;50.59;94607.09;4966882;28;20180;-52
2022/06/22 00:04:19;;;;;;;9.52;5.47;;;;;;;26.27;50.15;94597.66;4980059;28;20061;-55
2022/06/22 00:06:53;;;;;;;8.90;6.28;;;;;;;26.25;50.56;94599.47;4985735;28;20025;-53
2022/06/22 00:09:29;;;;;;;12.57;6.10;;;;;;;26.23;50.60;94601.97;4969287;28;20026;-54
2022/06/22 00:11:55;;;;;;;9.85;5.93;;;;;;;26.24;50.33;94606.19;5014838;28;20041;-54
2022/06/22 00:14:24;;;;;;;8.40;5.55;;;;;;;26.24;50.17;94603.47;4983895;28;20041;-52
2022/06/22 00:16:52;;;;;;;9.23;5.90;;;;;;;26.25;50.29;94610.41;4982239;28;20414;-53
2022/06/22 00:19:34;;;;;;;7.38;5.90;;;;;;;26.16;50.58;94618.34;4981762;28;20033;-53
2022/06/22 00:22:00;;;;;;;8.52;6.15;;;;;;;26.18;50.19;94613.09;4964893;28;20125;-53
2022/06/22 00:24:25;;;;;;;7.63;5.78;;;;;;;26.13;49.81;94613.94;4986310;28;20205;-53
2022/06/22 00:27:07;;;;;;;10.38;6.18;;;;;;;26.15;50.24;94617.63;5000715;28;20018;-54
2022/06/22 00:29:34;;;;;;;9.80;6.28;;;;;;;26.10;50.48;94609.56;4999850;28;20104;-55
2022/06/22 00:32:11;;;;;;;9.20;5.88;;;;;;;26.12;50.58;94607.75;4998753;28;20034;-52
2022/06/22 00:34:37;;;;;;;9.55;6.30;;;;;;;26.09;50.63;94608.81;4985175;28;20884;-56
2022/06/22 00:37:18;;;;;;;11.02;6.80;;;;;;;26.07;50.54;94607.88;4985865;28;20018;-58
2022/06/22 00:39:45;;;;;;;8.20;6.28;;;;;;;26.09;50.49;94606.09;4981812;28;20057;-53
2022/06/22 00:42:21;;;;;;;8.00;6.30;;;;;;;26.06;50.79;94609.91;4983498;28;20037;-55
2022/06/22 00:45:01;;;;;;;8.15;6.85;;;;;;;26.14;50.84;94605.22;5001501;28;20424;-54
2022/06/22 00:47:35;;;;;;;9.57;6.65;;;;;;;26.13;50.52;94603.75;5002287;28;20099;-54
2022/06/22 00:50:10;;;;;;;11.52;6.53;;;;;;;26.08;50.46;94607.34;4981421;28;20054;-55
2022/06/22 00:52:39;;;;;;;9.70;6.05;;;;;;;26.10;50.84;94607.56;4982464;28;20033;-53
2022/06/22 00:55:14;;;;;;;8.25;6.13;;;;;;;25.99;50.98;94621.53;4982996;28;20021;-55
2022/06/22 00:57:40;;;;;;;8.73;6.20;;;;;;;26.03;51.00;94621.91;4967770;28;20033;-55
2022/06/22 01:00:17;;;;;;;7.35;6.00;;;;;;;26.04;50.87;94614.47;4970858;28;20709;-54
2022/06/22 01:02:54;;;;;;;10.00;6.45;;;;;;;26.07;50.99;94616.84;4964221;28;20033;-53
2022/06/22 01:05:38;;;;;;;9.15;6.60;;;;;;;26.05;51.11;94613.94;4982101;28;20018;-53
2022/06/22 01:08:22;;;;;;;9.80;6.57;;;;;;;26.06;51.06;94620.84;4998113;28;20161;-52
2022/06/22 01:10:59;;;;;;;9.80;6.63;;;;;;;26.05;51.43;94613.94;4986032;28;20061;-53
2022/06/22 01:13:51;;;;;;;12.75;6.22;;;;;;;26.03;51.33;94605.50;4973515;28;20107;-53
2022/06/22 01:16:19;;;;;;;10.23;6.97;;;;;;;26.02;51.48;94604.06;4998828;28;20038;-56
2022/06/22 01:18:48;;;;;;;9.57;6.57;;;;;;;26.01;51.35;94602.56;4970916;28;20095;-53
2022/06/22 01:21:21;;;;;;;9.65;6.70;;;;;;;26.02;51.41;94604.06;4969551;28;20053;-54
2022/06/22 01:24:11;;;;;;;8.25;6.72;;;;;;;25.99;51.56;94605.13;4987358;28;20032;-53
2022/06/22 01:26:36;;;;;;;;;;;;;;;25.91;51.99;94604.31;4982178;28;20347;-53
2022/06/22 01:29:24;;;;;;;9.15;6.97;;;;;;;25.97;51.65;94593.97;5005548;28;20403;-53
2022/06/22 01:32:13;;;;;;;10.07;6.80;;;;;;;25.92;51.64;94594.84;5002059;28;20751;-53
2022/06/22 01:34:41;;;;;;;8.85;6.35;;;;;;;25.95;51.65;94599.25;4998695;28;20484;-53
2022/06/22 01:37:29;;;;;;;10.00;6.65;;;;;;;25.91;51.89;94593.38;4986526;28;20491;-54
2022/06/22 01:40:16;;;;;;;10.05;6.95;;;;;;;25.93;51.88;94588.13;5005517;28;20060;-52
2022/06/22 01:43:07;;;;;;;8.50;6.40;;;;;;;25.89;51.69;94587.72;5000978;28;20085;-53
2022/06/22 01:46:00;;;;;;;9.05;6.70;;;;;;;25.91;51.90;94581.69;5006933;28;20069;-53
2022/06/22 01:48:38;;;;;;;8.95;6.43;;;;;;;25.89;51.94;94576.75;4981946;28;20072;-53
2022/06/22 01:51:28;;;;;;;8.55;6.50;;;;;;;25.93;51.94;94574.44;4985984;28;20791;-54
2022/06/22 01:54:04;;;;;;;9.05;7.03;;;;;;;25.93;51.97;94574.44;5004215;28;20042;-54
2022/06/22 01:56:56;;;;;;;8.88;6.75;;;;;;;25.92;51.96;94578.44;4978869;28;20573;-53
2022/06/22 01:59:27;;;;;;;11.15;7.45;;;;;;;25.91;52.12;94587.91;4991778;28;20048;-53
2022/06/22 02:02:01;;;;;;;13.85;7.43;;;;;;;25.87;52.49;94584.78;5003965;28;20057;-53
2022/06/22 02:04:47;;;;;;;8.90;7.18;;;;;;;25.86;52.37;94583.31;4985346;28;20028;-55
2022/06/22 02:10:23;;;;;;;11.07;7.28;;;;;;;25.87;51.96;94576.56;4991468;28;20068;-54
2022/06/22 02:13:31;;;;;;;12.45;6.65;;;;;;;25.89;52.04;94576.75;5003037;28;20034;-54
2022/06/22 02:16:14;;;;;;;9.95;7.00;;;;;;;25.88;52.11;94567.06;4994663;28;20061;-57
2022/06/22 02:19:06;;;;;;;12.13;7.13;;;;;;;25.87;52.18;94568.38;4984925;28;20033;-55
2022/06/22 02:21:42;;;;;;;9.18;6.72;;;;;;;25.88;52.36;94567.06;5002763;28;20095;-56
2022/06/22 02:24:20;;;;;;;11.07;7.32;;;;;;;25.91;52.14;94573.50;4976804;28;20069;-53
2022/06/22 02:27:08;;;;;;;9.73;7.10;;;;;;;25.92;52.02;94567.47;4999194;28;20030;-53
2022/06/22 02:29:45;;;;;;;8.23;7.15;;;;;;;25.88;52.16;94567.06;5002964;28;20523;-55
2022/06/22 02:32:14;;;;;;;10.57;6.95;;;;;;;25.89;52.04;94563.09;4983710;28;20022;-55
2022/06/22 02:34:41;;;;;;;9.63;7.03;;;;;;;25.93;52.09;94574.44;4987665;28;20046;-54
2022/06/22 02:37:07;;;;;;;11.27;7.72;;;;;;;25.87;52.24;94576.56;5003206;28;20476;-54
2022/06/22 02:39:34;;;;;;;8.70;6.97;;;;;;;25.86;52.31;94575.09;4967219;28;20034;-55
2022/06/22 02:44:45;;;;;;;11.70;7.55;;;;;;;25.84;52.39;94583.13;5000058;28;20137;-54
2022/06/22 02:47:19;;;;;;;14.30;7.32;;;;;;;25.84;52.25;94566.69;5003581;28;20496;-53
2022/06/22 02:50:04;;;;;;;15.60;7.80;;;;;;;25.86;52.15;94569.63;5003954;28;20044;-53
2022/06/22 02:52:47;;;;;;;9.70;6.75;;;;;;;25.78;52.42;94567.38;4971635;28;20054;-53
2022/06/22 02:55:15;;;;;;;9.52;6.82;;;;;;;25.79;52.22;94568.84;5005399;28;20057;-53
2022/06/22 02:57:47;;;;;;;11.63;7.30;;;;;;;25.79;52.29;94567.56;4985192;28;20025;-54
2022/06/22 03:00:16;;;;;;;11.93;8.07;;;;;;;25.82;52.15;94574.69;5002514;28;20026;-52
2022/06/22 03:02:42;;;;;;;9.80;7.32;;;;;;;25.82;52.37;94580.16;4967346;28;20841;-53
2022/06/22 03:05:08;;;;;;;13.60;8.00;;;;;;;25.82;52.46;94579.44;5003571;28;20056;-56
2022/06/22 03:07:50;;;;;;;10.95;7.60;;;;;;;25.83;52.03;94581.63;4999080;28;20385;-54
2022/06/22 03:10:23;;;;;;;9.90;7.57;;;;;;;25.83;52.33;94581.63;4968614;28;20057;-57
2022/06/22 03:12:48;;;;;;;9.20;7.47;;;;;;;25.84;52.47;94588.59;4991632;28;20124;-58
2022/06/22 03:15:15;;;;;;;10.65;7.78;;;;;;;25.81;52.71;94578.72;4992660;28;20680;-53
2022/06/22 03:17:40;;;;;;;15.10;8.40;;;;;;;25.79;52.42;94570.28;4984702;28;20751;-53
2022/06/22 03:20:12;;;;;;;11.07;8.10;;;;;;;25.82;52.69;94580.16;4999878;28;20021;-54
2022/06/22 03:22:40;;;;;;;11.32;7.70;;;;;;;25.86;52.51;94580.56;4982835;28;20026;-53
2022/06/22 03:25:25;;;;;;;11.02;8.10;;;;;;;25.92;52.19;94577.69;5001187;28;20329;-53
2022/06/22 03:27:54;;;;;;;12.27;7.63;;;;;;;25.98;52.30;94575.56;4998301;28;20416;-54
2022/06/22 03:30:22;;;;;;;11.70;7.72;;;;;;;26.07;52.00;94573.06;4995617;28;20168;-53
2022/06/22 03:33:09;;;;;;;12.90;8.43;;;;;;;26.02;52.16;94570.47;4996199;28;20084;-53
2022/06/22 03:35:53;;;;;;;12.30;7.93;;;;;;;26.19;52.00;94568.75;4994035;28;20046;-54
2022/06/22 03:38:26;;;;;;;13.45;8.13;;;;;;;26.23;51.84;94574.59;4967924;28;20121;-53
2022/06/22 03:40:57;;;;;;;11.20;7.90;;;;;;;26.36;51.67;94571.81;4977601;28;20025;-54
2022/06/22 03:43:35;;;;;;;9.90;7.82;;;;;;;26.39;51.40;94570.72;4995392;28;20042;-57
2022/06/22 03:46:05;;;;;;;11.02;8.15;;;;;;;26.53;51.14;94569.31;4981006;28;20096;-53
2022/06/22 03:48:46;;;;;;;12.65;8.20;;;;;;;26.53;51.25;94574.81;4980816;28;20247;-53
2022/06/22 03:51:31;;;;;;;13.50;8.00;;;;;;;26.56;50.97;94568.25;4984376;28;20128;-52
2022/06/22 03:53:59;;;;;;;13.45;7.45;;;;;;;26.65;51.02;94576.72;4998949;28;20029;-54
2022/06/22 03:56:26;;;;;;;13.93;8.25;;;;;;;26.74;50.64;94583.66;5016918;28;20031;-57
2022/06/22 03:58:52;;;;;;;10.60;7.53;;;;;;;26.80;50.47;94588.47;4979682;28;20021;-52
2022/06/22 04:01:18;;;;;;;12.57;7.88;;;;;;;26.76;50.58;94593.56;5001877;28;20068;-54
2022/06/22 04:03:43;;;;;;;10.60;8.07;;;;;;;26.92;50.26;94591.63;5001497;28;20092;-52
2022/06/22 04:06:34;;;;;;;12.02;8.57;;;;;;;26.91;50.31;94593.66;5002056;28;20045;-56
2022/06/22 04:08:59;;;;;;;12.10;8.32;;;;;;;27.03;49.64;94605.03;4991472;28;20579;-58
2022/06/22 04:11:34;;;;;;;12.38;8.32;;;;;;;26.97;50.06;94590.75;4984017;28;20030;-53
2022/06/22 04:14:05;;;;;;;13.20;8.35;;;;;;;27.01;49.89;94597.34;4999845;28;20038;-54
2022/06/22 04:16:36;;;;;;;11.40;7.97;;;;;;;27.10;50.07;94588.59;4982241;28;20034;-53
2022/06/22 04:19:05;;;;;;;11.15;8.07;;;;;;;27.19;49.67;94579.84;5001887;28;20026;-55
2022/06/22 04:21:41;;;;;;;13.97;8.10;;;;;;;27.19;50.00;94579.84;4981156;28;20053;-54
2022/06/22 04:24:13;;;;;;;11.23;7.97;;;;;;;27.29;49.60;94567.06;4976421;28;20453;-53
2022/06/22 04:27:00;;;;;;;13.07;8.85;;;;;;;27.43;49.49;94582.81;4967989;28;20041;-51
2022/06/22 04:29:33;;;;;;;12.93;7.97;;;;;;;27.50;49.44;94586.88;4998730;28;20081;-53
2022/06/22 04:32:01;;;;;;;12.02;8.32;;;;;;;27.55;49.31;94583.22;4984060;28;20037;-53
2022/06/22 04:34:33;;;;;;;13.32;8.18;;;;;;;27.48;49.84;94583.94;4982684;28;20030;-54
2022/06/22 04:36:59;;;;;;;12.57;7.97;;;;;;;27.52;49.39;94584.31;5001749;28;20037;-54
2022/06/22 04:39:31;;;;;;;10.45;7.95;;;;;;;27.67;49.63;94584.34;4984653;28;20052;-51
2022/06/22 04:41:57;;;;;;;12.82;8.00;;;;;;;27.66;49.09;94599.34;4985902;28;20025;-55
2022/06/22 04:44:25;;;;;;;12.70;8.25;;;;;;;27.77;49.50;94594.97;4998294;28;20042;-51
2022/06/22 04:46:53;;;;;;;12.02;7.85;;;;;;;27.86;48.90;94597.16;4966578;28;20029;-54
2022/06/22 04:49:26;;;;;;;10.23;7.88;;;;;;;27.94;48.91;94603.38;5000470;28;20026;-53
2022/06/22 04:52:08;;;;;;;12.40;7.97;;;;;;;27.92;49.30;94603.22;5000230;28;20034;-57
2022/06/22 04:54:37;;;;;;;10.95;8.07;;;;;;;27.89;48.97;94601.56;4965713;28;20014;-55
2022/06/22 04:57:06;;;;;;;13.23;8.23;;;;;;;28.03;48.66;94602.84;5001706;28;20088;-54
2022/06/22 04:59:32;;;;;;;14.70;9.20;;;;;;;28.09;48.69;94597.91;4983265;28;20109;-54
2022/06/22 05:02:02;;;;;;;11.32;7.57;;;;;;;28.24;48.59;94603.41;5002834;28;20121;-51
2022/06/22 05:04:32;;;;;;;10.88;8.57;;;;;;;28.21;48.32;94603.78;5016926;28;20033;-52
2022/06/22 05:07:25;;;;;;;14.82;8.25;;;;;;;28.23;49.03;94612.91;4982381;28;20105;-53
2022/06/22 05:09:56;;;;;;;13.10;7.97;;;;;;;28.30;48.61;94617.66;4999459;28;20096;-58
2022/06/22 05:12:24;;;;;;;10.80;6.57;;;;;;;28.42;48.15;94616.00;5000871;28;20022;-52
2022/06/22 05:14:50;;;;;;;12.00;8.48;;;;;;;28.47;48.85;94612.34;4981485;28;20666;-53
2022/06/22 05:17:33;;;;;;;11.05;7.68;;;;;;;28.53;48.27;94612.88;4999669;28;20030;-53
2022/06/22 05:20:08;;;;;;;11.85;7.50;;;;;;;28.68;47.89;94618.34;4984471;28;20065;-57
2022/06/22 05:22:33;;;;;;;12.18;7.80;;;;;;;28.72;47.73;94621.47;4998848;28;20053;-55
2022/06/22 05:25:01;;;;;;;11.63;7.40;;;;;;;28.86;47.61;94623.44;5000030;28;20103;-51
2022/06/22 05:27:30;;;;;;;13.20;7.60;;;;;;;28.94;47.54;94624.88;4999748;28;20088;-52
2022/06/22 05:30:14;;;;;;;;;;;;;;;28.86;48.02;94623.44;4981382;28;20124;-54
2022/06/22 05:32:54;;;;;;;9.05;7.20;;;;;;;29.06;46.90;94609.44;4980883;28;20007;-52
2022/06/22 05:35:32;;;;;;;9.60;6.88;;;;;;;29.14;46.70;94604.63;5025969;28;20030;-54
2022/06/22 05:37:57;;;;;;;9.43;7.28;;;;;;;29.14;46.85;94601.88;4984738;28;20137;-52
2022/06/22 05:40:24;;;;;;;10.48;6.93;;;;;;;29.16;47.07;94607.53;5008169;28;20148;-56
2022/06/22 05:42:51;;;;;;;9.80;7.43;;;;;;;29.22;46.94;94605.31;4989367;28;20105;-52
2022/06/22 05:45:18;;;;;;;9.68;7.53;;;;;;;29.25;46.49;94609.72;5000639;28;20026;-52
2022/06/22 05:47:44;;;;;;;11.90;7.80;;;;;;;29.42;46.02;94607.09;4981608;28;20029;-53
2022/06/22 05:50:41;;;;;;;13.88;8.02;;;;;;;29.43;46.47;94619.53;4998494;28;20066;-54
2022/06/22 05:53:24;;;;;;;11.40;7.95;;;;;;;29.37;46.27;94632.78;4981120;28;20022;-53
2022/06/22 05:56:11;;;;;;;10.32;7.15;;;;;;;29.44;46.29;94632.00;4982935;28;20033;-54
2022/06/22 05:58:54;;;;;;;10.55;7.07;;;;;;;29.42;45.82;94629.09;4984417;28;20022;-53
2022/06/22 06:01:41;;;;;;;11.32;7.13;;;;;;;29.56;46.25;94633.06;5008104;28;20529;-52
2022/06/22 06:04:22;;;;;;;8.88;7.57;;;;;;;29.56;46.08;94622.03;5005696;28;20127;-53
2022/06/22 06:06:48;;;;;;;10.68;7.40;;;;;;;29.63;45.79;94632.28;4985651;28;20029;-53
2022/06/22 06:09:19;;;;;;;11.25;7.20;;;;;;;29.69;45.33;94622.50;4986882;28;20030;-51
2022/06/22 06:11:50;;;;;;;8.88;6.88;;;;;;;29.89;45.67;94616.69;5002756;28;20026;-52
2022/06/22 06:14:22;;;;;;;9.63;7.63;;;;;;;29.70;45.88;94621.94;4983790;28;20066;-52
2022/06/22 06:16:50;;;;;;;11.80;7.80;;;;;;;29.62;46.42;94625.31;4980734;28;20034;-55
2022/06/22 06:19:18;;;;;;;12.25;7.50;;;;;;;29.50;46.50;94629.78;4986380;28;20045;-52
2022/06/22 06:21:43;;;;;;;11.68;8.20;;;;;;;29.41;46.87;94622.13;4997750;28;20424;-55
2022/06/22 06:24:16;;;;;;;11.32;7.72;;;;;;;29.52;46.25;94616.94;4970721;28;20029;-53
2022/06/22 06:29:48;;;;;;;11.07;7.85;;;;;;;29.26;47.08;94619.44;4998474;28;20041;-53
2022/06/22 06:32:22;;;;;;;11.27;7.47;;;;;;;29.12;47.72;94617.47;5005564;28;20022;-52
2022/06/22 06:35:20;;;;;;;10.15;7.65;;;;;;;29.08;48.13;94612.34;5004165;28;20097;-53
2022/06/22 06:37:51;;;;;;;12.73;8.18;;;;;;;29.02;48.45;94620.06;4985342;28;20138;-52
2022/06/22 06:40:41;;;;;;;12.40;8.45;;;;;;;28.99;48.52;94615.69;4987125;28;20030;-55
2022/06/22 06:43:41;;;;;;;10.88;7.70;;;;;;;28.83;48.46;94619.78;4971991;28;20056;-53
2022/06/22 06:46:20;;;;;;;12.98;8.98;;;;;;;28.70;48.77;94615.78;5000600;28;20045;-56
2022/06/22 06:48:54;;;;;;;10.40;7.63;;;;;;;28.69;49.27;94611.59;5002067;28;20045;-52
2022/06/22 06:51:20;;;;;;;11.07;7.78;;;;;;;28.61;49.72;94605.34;4986269;28;20049;-55
2022/06/22 06:53:45;;;;;;;9.38;7.30;;;;;;;28.54;48.74;94603.34;5003220;28;20026;-52
2022/06/22 06:56:23;;;;;;;10.45;7.55;;;;;;;28.41;49.76;94612.50;5004954;28;20030;-53
2022/06/22 06:58:54;;;;;;;10.30;7.53;;;;;;;28.44;49.26;94603.16;4984004;28;20069;-54
2022/06/22 07:01:24;;;;;;;13.10;9.10;;;;;;;28.37;49.68;94606.69;5004697;28;20092;-54
2022/06/22 07:03:51;;;;;;;12.75;8.15;;;;;;;28.45;49.63;94601.88;5005069;28;20030;-52
2022/06/22 07:06:17;;;;;;;9.30;8.30;;;;;;;28.38;50.24;94607.41;4986809;28;20057;-52
2022/06/22 07:09:08;;;;;;;11.93;8.93;;;;;;;28.30;50.33;94601.19;5003640;28;20065;-52
2022/06/22 07:11:48;;;;;;;14.02;9.40;;;;;;;28.28;50.20;94609.97;4989674;28;20046;-52
2022/06/22 07:14:31;;;;;;;;;;;;;;;28.20;50.11;94592.03;4988391;28;20037;-52
2022/06/22 07:17:11;;;;;;;10.93;8.02;;;;;;;28.14;50.25;94597.00;5003686;28;19918;-52
2022/06/22 07:19:41;;;;;;;9.77;7.68;;;;;;;28.13;50.31;94603.78;4970591;28;20107;-51
2022/06/22 07:22:28;;;;;;;11.38;8.63;;;;;;;28.09;50.25;94591.69;4970855;28;20036;-53
2022/06/22 07:24:58;;;;;;;12.05;8.73;;;;;;;28.11;50.41;94592.59;4987144;28;20034;-52
2022/06/22 07:27:28;;;;;;;10.05;8.63;;;;;;;28.13;50.65;94592.81;4987433;28;20140;-52
2022/06/22 07:30:10;;;;;;;11.40;8.45;;;;;;;28.15;50.48;94589.50;4986470;28;20036;-52
2022/06/22 07:33:07;;;;;;;11.23;8.80;;;;;;;28.16;50.69;94602.69;5005015;28;20311;-53
2022/06/22 07:35:49;;;;;;;14.00;9.20;;;;;;;28.22;51.60;94589.50;4985423;28;20053;-54
2022/06/22 07:38:36;;;;;;;13.05;9.18;;;;;;;28.19;51.16;94593.34;5005426;28;20021;-54
2022/06/22 07:41:19;;;;;;;14.98;10.18;;;;;;;28.24;51.89;94586.91;4980253;28;20030;-54
2022/06/22 07:43:55;;;;;;;14.55;10.00;;;;;;;28.24;51.94;94597.91;4986281;28;20551;-53
2022/06/22 07:46:27;;;;;;;14.07;10.32;;;;;;;28.23;51.60;94585.44;4968088;28;20472;-55
2022/06/22 07:48:55;;;;;;;15.43;11.35;;;;;;;28.26;51.11;94600.81;4950800;28;20050;-52
2022/06/22 07:51:23;;;;;;;16.20;11.00;;;;;;;28.26;51.13;94596.06;4967566;28;20034;-59
2022/06/22 07:53:55;;;;;;;17.33;11.88;;;;;;;28.32;50.52;94587.63;4951430;28;20040;-52
2022/06/22 07:56:37;;;;;;;17.23;12.45;;;;;;;28.37;50.36;94600.44;4986131;28;20018;-55
2022/06/22 07:59:15;;;;;;;17.73;12.50;;;;;;;28.42;50.35;94594.75;4955121;28;20030;-58
2022/06/22 08:01:42;;;;;;;15.35;12.35;;;;;;;28.58;50.48;94600.94;4970367;28;20109;-52
2022/06/22 08:04:10;;;;;;;18.48;13.00;;;;;;;28.64;50.12;94601.47;4984280;28;20383;-53
2022/06/22 08:06:48;;;;;;;20.40;13.20;;;;;;;28.72;50.00;94606.44;4983286;28;20037;-54
2022/06/22 08:09:17;;;;;;;16.55;12.77;;;;;;;28.80;49.89;94606.41;4950205;28;20527;-54
2022/06/22 08:11:44;;;;;;;;;;;;;;;28.88;48.96;94621.59;4967378;28;20082;-54
2022/06/22 08:14:20;;;;;;;18.17;13.27;;;;;;;28.92;49.09;94610.97;4965342;28;19914;-51
2022/06/22 08:16:51;;;;;;;17.75;13.07;;;;;;;29.02;48.74;94624.84;4962451;28;20114;-53
2022/06/22 08:19:16;;;;;;;16.95;12.77;;;;;;;29.14;48.64;94612.88;4963713;28;22061;-54
2022/06/22 08:21:44;;;;;;;20.00;13.45;;;;;;;29.15;48.32;94622.59;4945192;28;20115;-54
2022/06/22 08:24:11;;;;;;;18.48;12.57;;;;;;;29.25;48.50;94615.22;4980863;28;20076;-53
2022/06/22 08:26:37;;;;;;;19.13;12.60;;;;;;;29.27;48.11;94598.91;4979342;28;20468;-57
2022/06/22 08:29:02;;;;;;;18.85;12.82;;;;;;;29.35;47.68;94596.84;4982534;28;20031;-56
2022/06/22 08:31:36;;;;;;;20.58;13.82;;;;;;;29.47;47.56;94608.88;4987666;28;20196;-57
2022/06/22 08:34:02;;;;;;;16.90;12.38;;;;;;;29.45;48.05;94603.22;4937997;28;20390;-55
2022/06/22 08:36:33;;;;;;;18.38;13.00;;;;;;;29.50;47.41;94602.25;4946050;28;20030;-54
2022/06/22 08:39:25;;;;;;;16.40;12.13;;;;;;;29.60;47.56;94603.84;4986385;28;20038;-56
2022/06/22 08:42:35;;;;;;;20.67;12.57;;;;;;;29.63;46.72;94604.75;4971000;28;20045;-53
2022/06/22 08:45:46;;;;;;;16.40;12.10;;;;;;;29.74;46.67;94600.25;4985981;28;20049;-52
2022/06/22 08:48:26;;;;;;;14.60;11.25;;;;;;;29.81;46.54;94610.50;4971099;28;20091;-55
2022/06/22 08:51:10;;;;;;;18.75;12.93;;;;;;;29.86;46.53;94603.31;5000202;28;20084;-53
2022/06/22 08:53:44;;;;;;;15.48;12.00;;;;;;;30.02;45.76;94608.16;5002417;28;20095;-53
2022/06/22 08:56:31;;;;;;;17.65;11.20;;;;;;;30.01;46.10;94584.66;5000491;28;20184;-58
2022/06/22 08:59:42;;;;;;;16.02;10.65;;;;;;;30.15;45.53;94594.09;4982714;28;20052;-53
2022/06/22 09:02:26;;;;;;;15.90;10.18;;;;;;;30.19;45.04;94577.88;5000479;28;20030;-53
2022/06/22 09:04:58;;;;;;;14.98;9.82;;;;;;;30.19;44.98;94588.91;5001497;28;20125;-54
2022/06/22 09:07:54;;;;;;;14.43;9.48;;;;;;;30.30;44.91;94577.44;4979617;28;20493;-52
2022/06/22 09:10:46;;;;;;;15.02;10.35;;;;;;;30.23;44.97;94572.72;5002169;28;20034;-52
2022/06/22 09:13:54;;;;;;;17.83;9.68;;;;;;;30.33;44.51;94581.81;4985153;28;20029;-55
2022/06/22 09:16:58;;;;;;;13.02;9.00;;;;;;;30.42;44.85;94578.41;4966066;28;20092;-54
2022/06/22 09:19:36;;;;;;;12.85;8.77;;;;;;;30.48;44.73;94578.91;4962320;28;20050;-53
2022/06/22 09:22:37;;;;;;;14.65;9.80;;;;;;;30.45;44.50;94582.81;4983447;28;20071;-53
2022/06/22 09:25:24;;;;;;;14.50;9.00;;;;;;;30.50;44.35;94576.34;4955937;28;20038;-53
2022/06/22 09:28:15;;;;;;;14.63;8.65;;;;;;;30.71;43.70;94561.56;5002433;28;20038;-53
2022/06/22 09:31:01;;;;;;;10.98;7.60;;;;;;;30.67;43.76;94555.75;4983305;28;20128;-56
2022/06/22 09:33:41;;;;;;;12.43;8.32;;;;;;;30.77;43.19;94556.53;4988376;28;20037;-53
2022/06/22 09:36:31;;;;;;;13.45;8.60;;;;;;;30.76;43.59;94551.59;5003538;28;20536;-54
2022/06/22 09:39:13;;;;;;;12.02;7.90;;;;;;;30.80;43.80;94549.88;5006726;28;20025;-55
2022/06/22 09:41:50;;;;;;;13.82;8.52;;;;;;;30.84;43.78;94536.41;4972352;28;20033;-53
2022/06/22 09:44:28;;;;;;;15.00;8.82;;;;;;;30.88;44.20;94558.84;5004967;28;20537;-55
2022/06/22 09:46:56;;;;;;;14.82;8.57;;;;;;;30.87;43.96;94538.06;5003259;28;20034;-52
2022/06/22 09:49:37;;;;;;;15.45;9.13;;;;;;;30.91;44.25;94541.16;5004870;28;20057;-53
2022/06/22 09:52:35;;;;;;;13.88;8.13;;;;;;;31.00;43.73;94537.72;5001587;28;20034;-53
2022/06/22 09:58:29;;;;;;;11.60;7.40;;;;;;;31.10;43.14;94546.78;5001052;28;20169;-53
2022/06/22 10:01:28;;;;;;;12.98;7.43;;;;;;;31.02;43.02;94551.66;4982977;28;20032;-52
2022/06/22 10:04:06;;;;;;;14.10;7.63;;;;;;;30.98;43.37;94551.34;4998509;28;20022;-55
2022/06/22 10:06:55;;;;;;;11.05;6.70;;;;;;;30.99;43.31;94569.34;5003085;28;20065;-53
2022/06/22 10:09:26;;;;;;;10.73;7.25;;;;;;;31.05;43.18;94569.13;5003424;28;20026;-54
2022/06/22 10:12:19;;;;;;;9.82;6.95;;;;;;;30.91;43.25;94579.00;4981369;28;20029;-56
2022/06/22 10:14:45;;;;;;;9.65;6.85;;;;;;;30.95;42.77;94574.56;4970316;28;20080;-53
2022/06/22 10:17:32;;;;;;;8.25;6.28;;;;;;;30.81;43.31;94569.94;5003561;28;20065;-53
2022/06/22 10:19:58;;;;;;;12.95;7.60;;;;;;;30.68;43.84;94573.72;4996698;28;20100;-53
2022/06/22 10:22:26;;;;;;;10.70;6.95;;;;;;;30.63;43.54;94576.00;5003000;28;20026;-53
2022/06/22 10:25:25;;;;;;;9.95;7.25;;;;;;;30.65;43.55;94580.38;4999656;28;20029;-52
2022/06/22 10:28:18;;;;;;;8.85;6.47;;;;;;;30.57;43.98;94583.78;4984227;28;20026;-55
2022/06/22 10:30:55;;;;;;;10.23;7.28;;;;;;;30.48;44.20;94587.19;5001364;28;20045;-52
2022/06/22 10:33:39;;;;;;;11.70;7.38;;;;;;;30.33;44.77;94576.31;5001239;28;20044;-53
2022/06/22 10:36:23;;;;;;;9.48;7.03;;;;;;;30.25;44.71;94570.13;5001561;28;20053;-56
2022/06/22 10:38:54;;;;;;;13.60;7.82;;;;;;;30.20;44.70;94562.81;5002248;28;20060;-52
2022/06/22 10:47:58;;;;;;;13.38;7.80;;;;;;;29.92;45.51;94565.28;4999369;28;20103;-53
2022/06/22 10:50:41;;;;;;;8.38;6.90;;;;;;;29.89;45.48;94572.63;5001825;28;20030;-53
2022/06/22 10:53:16;;;;;;;12.70;7.18;;;;;;;29.82;45.58;94564.44;4997724;28;20021;-53
2022/06/22 10:55:48;;;;;;;12.00;7.57;;;;;;;29.74;45.85;94567.22;4999615;28;20037;-52
2022/06/22 10:58:19;;;;;;;10.43;7.20;;;;;;;29.71;45.89;94573.84;5001534;28;20034;-53
2022/06/22 11:00:50;;;;;;;10.30;6.80;;;;;;;29.66;46.12;94565.09;5001592;28;20030;-54
2022/06/22 11:03:25;;;;;;;12.07;7.15;;;;;;;29.64;46.41;94567.66;4994886;28;20046;-53
2022/06/22 11:06:28;;;;;;;9.13;7.18;;;;;;;29.58;46.27;94565.16;4982415;28;20025;-53
2022/06/22 11:09:38;;;;;;;11.95;7.50;;;;;;;29.51;46.81;94576.94;5000294;28;20033;-52
2022/06/22 11:12:34;;;;;;;10.07;6.97;;;;;;;29.39;46.95;94564.19;4988351;28;20076;-52
2022/06/22 11:15:09;;;;;;;9.65;7.40;;;;;;;29.41;46.69;94561.59;4998586;28;20850;-52
2022/06/22 11:17:49;;;;;;;9.85;7.30;;;;;;;29.39;46.79;94564.91;4984987;28;20038;-55
2022/06/22 11:20:32;;;;;;;8.88;7.03;;;;;;;29.30;47.40;94567.53;5000507;28;20041;-53
2022/06/22 11:23:38;;;;;;;10.40;6.78;;;;;;;29.27;47.87;94576.91;5001461;28;20041;-51
2022/06/22 11:32:12;;;;;;;10.82;7.38;;;;;;;29.09;47.64;94575.31;4985467;28;20053;-54
2022/06/22 11:35:08;;;;;;;11.07;7.70;;;;;;;29.06;47.82;94581.94;4998459;28;20065;-56
2022/06/22 11:37:52;;;;;;;8.73;7.28;;;;;;;28.99;48.32;94566.19;4996692;28;20763;-53
2022/06/22 11:40:29;;;;;;;12.07;7.88;;;;;;;28.94;48.55;94578.13;5002680;28;20180;-54
2022/06/22 11:43:22;;;;;;;12.60;7.68;;;;;;;28.92;48.05;94566.97;4958777;28;1178149;-54
2022/06/22 11:46:09;;;;;;;10.77;7.78;;;;;;;28.87;48.39;94578.88;5000956;28;20040;-54
2022/06/22 11:48:56;;;;;;;10.15;7.93;;;;;;;28.89;48.53;94570.84;4998097;28;20069;-52
2022/06/22 11:51:26;;;;;;;10.15;7.50;;;;;;;28.89;47.98;94568.09;4996193;28;20037;-52
2022/06/22 11:54:23;;;;;;;10.82;7.78;;;;;;;28.86;48.65;94563.69;5000721;28;20188;-53
2022/06/22 11:56:51;;;;;;;11.07;8.02;;;;;;;28.86;48.04;94568.44;4951456;28;20513;-55
2022/06/22 11:59:48;;;;;;;12.55;7.45;;;;;;;28.86;48.68;94562.94;5002705;28;20105;-52
2022/06/22 12:02:22;;;;;;;10.95;8.07;;;;;;;28.84;48.27;94560.75;4998689;28;20053;-52
2022/06/22 12:05:02;;;;;;;14.13;8.60;;;;;;;28.85;48.94;94561.50;5003205;28;20029;-53
2022/06/22 12:07:43;;;;;;;11.75;8.45;;;;;;;28.82;48.20;94568.84;4984332;28;20085;-54
2022/06/22 12:10:14;;;;;;;11.50;8.00;;;;;;;28.82;48.63;94574.34;5001318;28;20034;-51
2022/06/22 12:12:52;;;;;;;13.45;8.60;;;;;;;28.81;48.65;94567.38;5000690;28;20060;-55
2022/06/22 12:15:43;;;;;;;10.88;7.65;;;;;;;28.91;48.87;94560.00;4996320;28;20162;-53
2022/06/22 12:18:24;;;;;;;11.95;8.60;;;;;;;28.93;48.62;94565.66;4980972;28;20037;-54
2022/06/22 12:21:08;;;;;;;11.60;8.32;;;;;;;28.88;48.30;94572.09;4983811;28;20087;-53
2022/06/22 12:23:49;;;;;;;13.35;7.88;;;;;;;28.90;48.39;94558.53;5003351;28;20124;-53
2022/06/22 12:26:29;;;;;;;11.93;8.00;;;;;;;28.91;48.68;94553.78;5001727;28;20033;-53
2022/06/22 12:29:28;;;;;;;13.00;7.72;;;;;;;28.83;48.98;94570.31;5001573;28;20095;-52
2022/06/22 12:32:17;;;;;;;14.88;8.90;;;;;;;28.85;48.62;94556.72;4997892;28;20345;-52
2022/06/22 12:35:20;;;;;;;10.55;8.27;;;;;;;28.80;48.58;94565.91;4982739;28;20564;-52
2022/06/22 12:37:51;;;;;;;11.50;7.75;;;;;;;28.86;48.34;94573.94;4997660;28;20382;-56
2022/06/22 12:40:23;;;;;;;11.10;8.90;;;;;;;28.85;48.55;94573.22;4999879;28;20556;-54